Monticello, AR

6:31 PM CDT en Septiembre 01, 2014 (GMT -0500)
RAWS UAM AR US | Change Station
CLOSE
Current Station
Estación meteorológica personal
Location: Monticello, AR
Altura: 183 ft
Estaciones meteorológicas cercanas

Alt 183 ft 33.59 °N, 91.81 °W | Updated 31 minutes ago

Clear
Despejado
88 ° F
Sensación térmica 104 ° F
N
3
Viento Variable Viento desde SSE
Gusts 9.0 mph

Hoy
Alta -- | Baja -- ° F
--% Posibilidad de precipitaciones
Ayer
Alta -- | Baja -- ° F
Precip. -- pul
6:41 AM 7:32 PM
Creciente, 45% visible
Presión 29.94 pul
Visibilidad 10.0 Millas
Nubes Despejado
Índice de calor 104 ° F
Punto de rocío 79 ° F
Humedad 76%
Precipitaciones 0.07 pul
Espesor de la nieve No disponible.
UV 1 de una escala de 12
Polen 10.70 de una escala de 12
Calidad del aire No disponible.
Flu Activity No disponible.
METAR KLLQ 012253Z AUTO 17005KT 10SM CLR 31/23 A2995 RMK AO2 SLP138 T03060233

More Conditions Fewer Conditions

Presión 29.94 pul
Visibilidad 10.0 Millas
Nubes Despejado
Índice de calor 104 ° F
Punto de rocío 79 ° F
Humedad 76%
Precipitaciones 0.07 pul
Espesor de la nieve No disponible.
UV 1 de una escala de 12
Polen 10.70 de una escala de 12
Calidad del aire No disponible.
Flu Activity No disponible.
METAR KLLQ 012253Z AUTO 17005KT 10SM CLR 31/23 A2995 RMK AO2 SLP138 T03060233

More Conditions Fewer Conditions

10-Day Weather Forecast

Almanac

Astronomía

Sep. 01, 2014 Salida Puesta
Hora real 6:41 AM CDT 7:32 PM CDT
Crepúsculo civil 6:15 AM CDT 7:57 PM CDT
Crepúsculo náutico 5:45 AM CDT 8:27 PM CDT
Crepúsculo astronómico 5:14 AM CDT 8:58 PM CDT
Luna 1:07 PM CDT 11:53 PM CDT
Horas de luz 13h 42m
Horas de luz
12h 51m
Tomorrow will be 2m 0s shorter.
Creciente, 45% of the Moon is Illuminated
Hoy
Creciente
Sep 2
Cuarto creciente
Sep 8
Luna llena
Sep 15
Cuarto menguante
Sep 24
Nueva

Extremos de hoy

Máximos del estado Bajos del estado

Community

WunderPhotos

Upload Photos

1,749,440 ¡fotos cargadas!

Nearby

Grosos de nieve

Estación Profundido Altura
No tenemos constancia de nieve nueva.

Actividad de terremotos

Ciudad Distance Mag. Tiempo y dato
No hay informes recientes de la actividad sísmica.
Magnitud mínima muestra es 2,5.

Temperaturas de aguas costeras

Lugar Temperatura
Sin partes meteorológicos de las estaciones

Estaciones meteorológicas cercanas